Time;durP1;ratioP1;P1;durP2;ratioP2;P2;SDS_P1;SDS_P2;PMS_P1;PMS_P2;Temp;Humidity;BMP_temperature;BMP_pressure;BME280_temperature;BME280_humidity;BME280_pressure;Samples;Min_cycle;Max_cycle;Signal;HPM_P1;HPM_P2
2022/06/01 00:00:43;;;;;;;;;;;9.00;99.90;;;;;;4998375;28;19920;-77
2022/06/01 00:03:09;;;;;;;;;;;9.00;99.90;;;;;;5049708;28;19966;-80
2022/06/01 00:05:35;;;;;;;;;;;9.00;99.90;;;;;;5030366;28;20287;-78
2022/06/01 00:08:01;;;;;;;;;;;9.00;99.90;;;;;;5039259;28;19921;-80
2022/06/01 00:10:28;;;;;;;;;;;9.00;99.90;;;;;;5027873;28;19920;-79
2022/06/01 00:12:59;;;;;;;;;;;9.00;99.90;;;;;;5011843;28;20330;-80
2022/06/01 00:15:26;;;;;;;;;;;9.00;99.90;;;;;;5006920;28;20011;-78
2022/06/01 00:17:51;;;;;;;;;;;9.00;99.90;;;;;;5020154;28;19917;-79
2022/06/01 00:20:17;;;;;;;;;;;9.10;99.90;;;;;;5036625;28;19921;-79
2022/06/01 00:22:44;;;;;;;;;;;9.10;99.90;;;;;;5024177;28;20325;-82
2022/06/01 00:25:10;;;;;;;;;;;9.10;99.90;;;;;;5049237;28;19924;-79
2022/06/01 00:27:36;;;;;;;;;;;9.20;99.90;;;;;;5032490;28;19924;-78
2022/06/01 00:30:03;;;;;;;;;;;9.20;99.90;;;;;;5055187;28;20278;-78
2022/06/01 00:32:29;;;;;;;;;;;9.20;99.90;;;;;;5035803;28;19917;-79
2022/06/01 00:34:55;;;;;;;;;;;9.30;99.90;;;;;;5005902;28;20045;-79
2022/06/01 00:37:21;;;;;;;;;;;9.30;99.90;;;;;;5035341;28;19955;-78
2022/06/01 00:39:47;;;;;;;;;;;9.40;99.90;;;;;;5023294;28;19924;-79
2022/06/01 00:42:13;;;;;;;;;;;9.40;99.90;;;;;;5018743;28;19916;-81
2022/06/01 00:44:39;;;;;;;;;;;9.40;99.90;;;;;;5032225;28;19928;-80
2022/06/01 00:47:04;;;;;;;;;;;9.50;99.90;;;;;;5031969;28;19967;-77
2022/06/01 00:49:30;;;;;;;;;;;9.50;99.90;;;;;;5032385;28;19917;-80
2022/06/01 00:51:56;;;;;;;;;;;9.70;99.90;;;;;;5059574;28;20274;-80
2022/06/01 00:54:22;;;;;;;;;;;9.80;99.90;;;;;;5014915;28;19960;-79
2022/06/01 00:56:53;;;;;;;;;;;9.80;99.90;;;;;;5010961;28;19925;-80
2022/06/01 00:59:21;;;;;;;;;;;9.80;99.90;;;;;;5035205;28;19936;-79
2022/06/01 01:01:48;;;;;;;;;;;9.80;99.90;;;;;;5035468;28;19917;-78
2022/06/01 01:04:14;;;;;;;;;;;9.80;99.90;;;;;;5017255;28;19971;-78
2022/06/01 01:06:41;;;;;;;;;;;9.70;99.90;;;;;;5043318;28;19917;-78
2022/06/01 01:09:07;;;;;;;;;;;9.80;99.90;;;;;;5012595;28;20015;-80
2022/06/01 01:11:36;;;;;;;;;;;9.80;99.90;;;;;;5015654;28;19921;-79
2022/06/01 01:14:02;;;;;;;;;;;9.90;99.90;;;;;;5035329;28;19982;-78
2022/06/01 01:16:29;;;;;;;;;;;9.90;99.90;;;;;;5011977;28;19970;-80
2022/06/01 01:18:55;;;;;;;;;;;9.90;99.90;;;;;;5022156;28;19925;-79
2022/06/01 01:21:26;;;;;;;;;;;9.90;99.90;;;;;;5038799;28;19932;-79
2022/06/01 01:23:56;;;;;;;;;;;9.90;99.90;;;;;;5035373;28;20257;-78
2022/06/01 01:26:22;;;;;;;;;;;9.90;99.90;;;;;;5016448;28;19917;-77
2022/06/01 01:28:48;;;;;;;;;;;9.80;99.90;;;;;;4994347;28;19976;-82
2022/06/01 01:31:18;;;;;;;;;;;9.80;99.90;;;;;;5029152;28;19921;-80
2022/06/01 01:33:48;;;;;;;;;;;9.80;99.90;;;;;;5044764;28;19924;-77
2022/06/01 01:36:14;;;;;;;;;;;9.80;99.90;;;;;;5070692;28;20251;-78
2022/06/01 01:38:52;;;;;;;;;;;9.80;99.90;;;;;;5068739;28;19921;-78
2022/06/01 01:41:30;;;;;;;;;;;9.80;99.90;;;;;;5025889;28;19917;-80
2022/06/01 01:44:09;;;;;;;;;;;9.80;99.90;;;;;;5010094;28;19921;-81
2022/06/01 01:46:35;;;;;;;;;;;9.70;99.90;;;;;;5030189;28;19939;-78
2022/06/01 01:49:02;;;;;;;;;;;9.70;99.90;;;;;;5029120;28;20012;-78
2022/06/01 01:51:29;;;;;;;;;;;9.70;99.90;;;;;;5016330;28;20420;-77
2022/06/01 01:53:55;;;;;;;;;;;9.70;99.90;;;;;;5019286;28;19920;-80
2022/06/01 01:56:35;;;;;;;;;;;9.70;99.90;;;;;;5059647;28;19943;-81
2022/06/01 01:59:24;;;;;;;;;;;9.70;99.90;;;;;;5039018;28;21389;-81
2022/06/01 02:02:00;;;;;;;;;;;9.70;99.90;;;;;;5023061;28;19916;-80
2022/06/01 02:07:18;;;;;;;;;;;9.60;99.90;;;;;;5025777;28;19917;-80
2022/06/01 02:12:43;;;;;;;;;;;9.60;99.90;;;;;;5049945;28;19921;-81
2022/06/01 02:15:12;;;;;;;;;;;9.60;99.90;;;;;;5021483;28;20326;-80
2022/06/01 02:17:48;;;;;;;;;;;9.60;99.90;;;;;;5047221;28;19927;-78
2022/06/01 02:20:19;;;;;;;;;;;9.60;99.90;;;;;;5020680;28;19917;-80
2022/06/01 02:22:45;;;;;;;;;;;9.60;99.90;;;;;;5018784;28;20003;-78
2022/06/01 02:25:12;;;;;;;;;;;9.60;99.90;;;;;;5023858;28;20004;-78
2022/06/01 02:27:39;;;;;;;;;;;9.60;99.90;;;;;;5021319;28;20387;-80
2022/06/01 02:30:11;;;;;;;;;;;9.80;99.90;;;;;;5046008;28;19921;-79
2022/06/01 02:32:37;;;;;;;;;;;9.70;99.90;;;;;;5025638;28;19917;-77
2022/06/01 02:35:05;;;;;;;;;;;9.70;99.90;;;;;;5031442;28;19921;-80
2022/06/01 02:37:32;;;;;;;;;;;9.70;99.90;;;;;;5016146;28;19916;-80
2022/06/01 02:39:58;;;;;;;;;;;9.70;99.90;;;;;;5030922;28;19924;-79
2022/06/01 02:42:28;;;;;;;;;;;9.70;99.90;;;;;;5017975;28;19921;-78
2022/06/01 02:44:58;;;;;;;;;;;9.80;99.90;;;;;;5026877;28;20298;-78
2022/06/01 02:47:24;;;;;;;;;;;9.70;99.90;;;;;;5016283;28;19968;-80
2022/06/01 02:49:50;;;;;;;;;;;9.70;99.90;;;;;;5061183;28;19935;-82
2022/06/01 02:52:15;;;;;;;;;;;9.70;99.90;;;;;;5047474;28;19917;-80
2022/06/01 02:54:41;;;;;;;;;;;9.70;99.90;;;;;;4995839;28;19975;-79
2022/06/01 02:57:07;;;;;;;;;;;9.70;99.90;;;;;;5041780;28;19921;-77
2022/06/01 02:59:32;;;;;;;;;;;9.60;99.90;;;;;;5020641;28;19933;-78
2022/06/01 03:01:58;;;;;;;;;;;9.60;99.90;;;;;;5008436;28;19917;-79
2022/06/01 03:04:24;;;;;;;;;;;9.60;99.90;;;;;;5033639;28;19917;-79
2022/06/01 03:06:50;;;;;;;;;;;9.60;99.90;;;;;;5058918;28;19948;-78
2022/06/01 03:09:18;;;;;;;;;;;9.50;99.90;;;;;;5018857;28;19917;-79
2022/06/01 03:11:44;;;;;;;;;;;9.50;99.90;;;;;;5020418;28;20080;-79
2022/06/01 03:14:12;;;;;;;;;;;9.50;99.90;;;;;;5029767;28;19998;-81
2022/06/01 03:16:40;;;;;;;;;;;9.50;99.90;;;;;;5032586;28;19953;-79
2022/06/01 03:19:06;;;;;;;;;;;9.40;99.90;;;;;;5035695;28;20271;-81
2022/06/01 03:21:38;;;;;;;;;;;9.40;99.90;;;;;;5040444;28;20269;-77
2022/06/01 03:24:05;;;;;;;;;;;9.40;99.90;;;;;;5010256;28;19921;-79
2022/06/01 03:26:31;;;;;;;;;;;9.40;99.90;;;;;;5029295;28;20007;-80
2022/06/01 03:28:56;;;;;;;;;;;9.30;99.90;;;;;;5009650;28;19924;-81
2022/06/01 03:31:23;;;;;;;;;;;9.40;99.90;;;;;;5032239;28;19924;-77
2022/06/01 03:33:49;;;;;;;;;;;9.30;99.90;;;;;;5040675;28;19967;-81
2022/06/01 03:36:16;;;;;;;;;;;9.30;99.90;;;;;;5064142;28;19917;-82
2022/06/01 03:38:43;;;;;;;;;;;9.30;99.90;;;;;;5061630;28;19921;-80
2022/06/01 03:41:09;;;;;;;;;;;9.30;99.90;;;;;;5032417;28;20011;-79
2022/06/01 03:46:20;;;;;;;;;;;9.40;99.90;;;;;;5003333;28;19924;-81
2022/06/01 03:48:46;;;;;;;;;;;9.30;99.90;;;;;;5017659;28;19917;-79
2022/06/01 03:51:11;;;;;;;;;;;9.30;99.90;;;;;;5035337;28;19917;-81
2022/06/01 03:53:37;;;;;;;;;;;9.40;99.90;;;;;;5050456;28;19986;-79
2022/06/01 03:56:03;;;;;;;;;;;9.40;99.90;;;;;;5033636;28;20373;-82
2022/06/01 03:58:30;;;;;;;;;;;9.50;99.90;;;;;;5012226;28;20002;-80
2022/06/01 04:00:56;;;;;;;;;;;9.50;99.90;;;;;;5023338;28;19921;-78
2022/06/01 04:03:22;;;;;;;;;;;9.60;99.90;;;;;;5030912;28;20286;-77
2022/06/01 04:05:48;;;;;;;;;;;9.60;99.90;;;;;;5035172;28;20039;-77
2022/06/01 04:08:13;;;;;;;;;;;9.70;99.90;;;;;;5039804;28;19986;-77
2022/06/01 04:10:40;;;;;;;;;;;9.80;99.90;;;;;;5022873;28;19921;-79
2022/06/01 04:13:05;;;;;;;;;;;9.80;99.90;;;;;;5013227;28;20027;-81
2022/06/01 04:15:31;;;;;;;;;;;9.90;99.90;;;;;;5023381;28;20461;-78
2022/06/01 04:17:58;;;;;;;;;;;9.90;99.90;;;;;;5036237;28;19931;-77
2022/06/01 04:20:26;;;;;;;;;;;10.00;99.90;;;;;;5036867;28;20358;-79
2022/06/01 04:22:56;;;;;;;;;;;10.00;99.90;;;;;;5037278;28;19917;-80
2022/06/01 04:25:23;;;;;;;;;;;10.10;99.90;;;;;;5052492;28;19916;-77
2022/06/01 04:27:48;;;;;;;;;;;10.10;99.90;;;;;;5039033;28;20267;-82
2022/06/01 04:30:16;;;;;;;;;;;10.20;99.90;;;;;;5007459;28;19924;-80
2022/06/01 04:32:42;;;;;;;;;;;10.20;99.90;;;;;;5069058;28;19921;-78
2022/06/01 04:35:09;;;;;;;;;;;10.30;99.90;;;;;;5028773;28;20010;-80
2022/06/01 04:37:37;;;;;;;;;;;10.40;99.90;;;;;;5012777;28;19955;-79
2022/06/01 04:40:03;;;;;;;;;;;10.40;99.90;;;;;;5017692;28;19921;-78
2022/06/01 04:42:29;;;;;;;;;;;10.50;99.90;;;;;;5051049;28;19920;-77
2022/06/01 04:44:54;;;;;;;;;;;10.60;99.90;;;;;;5034979;28;19927;-81
2022/06/01 04:47:20;;;;;;;;;;;10.60;99.90;;;;;;4993320;28;20012;-79
2022/06/01 04:49:46;;;;;;;;;;;10.70;99.90;;;;;;5012485;28;19917;-80
2022/06/01 04:52:13;;;;;;;;;;;10.70;99.90;;;;;;5013014;28;19927;-80
2022/06/01 04:54:38;;;;;;;;;;;10.70;99.90;;;;;;5006188;28;20011;-78
2022/06/01 04:57:06;;;;;;;;;;;10.80;99.90;;;;;;5035821;28;19964;-79
2022/06/01 04:59:33;;;;;;;;;;;10.80;99.90;;;;;;5018737;28;19921;-79
2022/06/01 05:01:59;;;;;;;;;;;10.90;99.90;;;;;;5049315;28;19924;-79
2022/06/01 05:04:25;;;;;;;;;;;10.90;99.90;;;;;;5034628;28;19921;-81
2022/06/01 05:06:50;;;;;;;;;;;11.00;99.90;;;;;;5017774;28;19943;-79
2022/06/01 05:09:16;;;;;;;;;;;11.00;99.90;;;;;;5041274;28;19972;-78
2022/06/01 05:11:42;;;;;;;;;;;11.10;99.90;;;;;;5047844;28;19971;-78
2022/06/01 05:14:07;;;;;;;;;;;11.20;99.90;;;;;;5011533;28;20070;-78
2022/06/01 05:16:33;;;;;;;;;;;11.30;99.90;;;;;;5012531;28;20330;-80
2022/06/01 05:18:58;;;;;;;;;;;11.40;99.90;;;;;;5042624;28;19956;-82
2022/06/01 05:21:24;;;;;;;;;;;11.40;99.90;;;;;;5045154;28;20660;-82
2022/06/01 05:23:50;;;;;;;;;;;11.50;99.90;;;;;;5027981;28;19917;-80
2022/06/01 05:26:15;;;;;;;;;;;11.50;99.90;;;;;;5016605;28;19917;-78
2022/06/01 05:28:41;;;;;;;;;;;11.60;99.90;;;;;;5048518;28;19917;-81
2022/06/01 05:31:09;;;;;;;;;;;11.60;99.90;;;;;;5049687;28;19917;-81
2022/06/01 05:33:35;;;;;;;;;;;11.70;99.90;;;;;;5018369;28;19921;-79
2022/06/01 05:36:00;;;;;;;;;;;11.80;99.90;;;;;;5020552;28;20400;-79
2022/06/01 05:38:32;;;;;;;;;;;11.80;99.90;;;;;;5015731;28;19967;-79
2022/06/01 05:41:04;;;;;;;;;;;11.90;99.90;;;;;;5034963;28;19924;-79
2022/06/01 05:43:30;;;;;;;;;;;12.00;99.90;;;;;;5034580;28;19916;-79
2022/06/01 05:45:56;;;;;;;;;;;12.10;99.90;;;;;;5015034;28;19921;-80
2022/06/01 05:48:22;;;;;;;;;;;12.30;99.90;;;;;;5016874;28;19944;-77
2022/06/01 05:50:47;;;;;;;;;;;12.50;99.90;;;;;;5020530;28;19927;-82
2022/06/01 05:53:13;;;;;;;;;;;12.70;99.90;;;;;;5027882;28;19924;-80
2022/06/01 05:55:39;;;;;;;;;;;12.80;99.90;;;;;;5035387;28;19940;-80
2022/06/01 05:58:12;;;;;;;;;;;12.80;99.90;;;;;;5056811;28;19924;-79
2022/06/01 06:00:38;;;;;;;;;;;13.00;99.90;;;;;;5018725;28;19921;-77
2022/06/01 06:03:03;;;;;;;;;;;13.20;99.90;;;;;;5032810;28;19920;-83
2022/06/01 06:08:14;;;;;;;;;;;13.60;99.90;;;;;;5034828;28;19917;-77
2022/06/01 06:10:39;;;;;;;;;;;13.70;99.90;;;;;;5032668;28;19917;-81
2022/06/01 06:13:05;;;;;;;;;;;13.90;99.90;;;;;;5027114;28;19927;-81
2022/06/01 06:15:30;;;;;;;;;;;14.00;99.90;;;;;;5021221;28;19921;-80
2022/06/01 06:17:57;;;;;;;;;;;14.20;99.90;;;;;;5001429;28;20423;-80
2022/06/01 06:20:23;;;;;;;;;;;14.40;99.90;;;;;;5012141;28;19917;-81
2022/06/01 06:22:48;;;;;;;;;;;14.50;99.90;;;;;;5014468;28;19921;-82
2022/06/01 06:25:14;;;;;;;;;;;14.70;99.90;;;;;;5016522;28;20019;-80
2022/06/01 06:27:40;;;;;;;;;;;15.00;99.90;;;;;;5007222;28;19916;-77
2022/06/01 06:30:05;;;;;;;;;;;15.20;99.90;;;;;;5038628;28;20376;-79
2022/06/01 06:32:31;;;;;;;;;;;15.50;99.90;;;;;;5041347;28;19924;-78
2022/06/01 06:34:57;;;;;;;;;;;15.70;99.90;;;;;;5031749;28;20362;-82
2022/06/01 06:37:23;;;;;;;;;;;15.60;99.90;;;;;;5039788;28;19966;-78
2022/06/01 06:39:48;;;;;;;;;;;15.60;99.90;;;;;;4998852;28;20062;-81
2022/06/01 06:42:14;;;;;;;;;;;15.40;99.90;;;;;;5032043;28;20362;-80
2022/06/01 06:44:40;;;;;;;;;;;15.10;99.90;;;;;;5020426;28;19932;-78
2022/06/01 06:47:07;;;;;;;;;;;14.70;99.90;;;;;;5023895;28;19995;-79
2022/06/01 06:49:33;;;;;;;;;;;14.50;99.90;;;;;;5000260;28;20279;-81
2022/06/01 06:51:58;;;;;;;;;;;14.00;99.90;;;;;;5034657;28;19917;-82
2022/06/01 06:54:25;;;;;;;;;;;13.40;99.90;;;;;;5054315;28;19923;-80
2022/06/01 06:56:51;;;;;;;;;;;12.60;99.90;;;;;;5025672;28;19921;-82
2022/06/01 06:59:17;;;;;;;;;;;11.80;99.90;;;;;;5006187;28;19921;-82
2022/06/01 07:01:42;;;;;;;;;;;11.00;99.90;;;;;;5009166;28;20418;-81
2022/06/01 07:04:08;;;;;;;;;;;10.40;99.90;;;;;;5033374;28;20428;-82
2022/06/01 07:06:34;;;;;;;;;;;10.20;99.90;;;;;;5034299;28;19923;-80
2022/06/01 07:09:03;;;;;;;;;;;10.00;99.90;;;;;;5018559;28;19917;-82
2022/06/01 07:11:29;;;;;;;;;;;10.00;99.90;;;;;;5029867;28;19916;-80
2022/06/01 07:13:56;;;;;;;;;;;10.00;99.90;;;;;;5036854;28;20273;-82
2022/06/01 07:16:24;;;;;;;;;;;10.10;99.90;;;;;;5023989;28;19917;-81
2022/06/01 07:18:51;;;;;;;;;;;10.20;99.90;;;;;;5035909;28;20004;-80
2022/06/01 07:21:18;;;;;;;;;;;10.30;99.90;;;;;;5001033;28;19928;-79
2022/06/01 07:23:44;;;;;;;;;;;10.40;99.90;;;;;;5029376;28;19998;-83
2022/06/01 07:26:14;;;;;;;;;;;10.40;99.90;;;;;;5030386;28;20433;-82
2022/06/01 07:28:40;;;;;;;;;;;10.50;99.90;;;;;;5061458;28;19924;-79
2022/06/01 07:31:06;;;;;;;;;;;10.70;99.90;;;;;;5002845;28;20050;-83
2022/06/01 07:33:32;;;;;;;;;;;10.80;99.90;;;;;;5036447;28;19989;-80
2022/06/01 07:35:59;;;;;;;;;;;10.90;99.90;;;;;;5023515;28;20370;-83
2022/06/01 07:43:55;;;;;;;;;;;11.60;99.90;;;;;;5012544;28;19920;-81
2022/06/01 07:46:21;;;;;;;;;;;11.80;99.90;;;;;;5037198;28;19923;-81
2022/06/01 07:48:49;;;;;;;;;;;12.10;99.90;;;;;;5022723;28;20004;-79
2022/06/01 07:51:17;;;;;;;;;;;12.30;99.90;;;;;;5023880;28;20415;-81
2022/06/01 07:53:43;;;;;;;;;;;12.50;99.90;;;;;;5008164;28;19964;-81
2022/06/01 07:56:09;;;;;;;;;;;12.80;99.90;;;;;;5030033;28;19917;-79
2022/06/01 07:58:35;;;;;;;;;;;13.10;99.90;;;;;;5037521;28;19921;-81
2022/06/01 08:01:01;;;;;;;;;;;13.20;99.90;;;;;;5052116;28;19924;-79
2022/06/01 08:03:26;;;;;;;;;;;13.40;99.90;;;;;;5022842;28;19924;-78
2022/06/01 08:05:58;;;;;;;;;;;13.40;99.90;;;;;;5015125;28;20521;-80
2022/06/01 08:08:24;;;;;;;;;;;13.70;99.90;;;;;;4998099;28;19966;-81
2022/06/01 08:10:50;;;;;;;;;;;14.00;99.90;;;;;;5018992;28;19964;-80
2022/06/01 08:13:16;;;;;;;;;;;14.40;99.90;;;;;;5034725;28;19917;-81
2022/06/01 08:15:45;;;;;;;;;;;14.60;99.90;;;;;;5027466;28;20333;-77
2022/06/01 08:18:12;;;;;;;;;;;14.70;99.90;;;;;;5028010;28;19916;-79
2022/06/01 08:20:38;;;;;;;;;;;14.80;99.90;;;;;;5024526;28;19956;-81
2022/06/01 08:23:05;;;;;;;;;;;14.80;99.90;;;;;;5055400;28;19924;-77
2022/06/01 08:25:30;;;;;;;;;;;15.10;99.90;;;;;;5058122;28;19975;-81
2022/06/01 08:27:56;;;;;;;;;;;15.20;99.90;;;;;;5062711;28;19916;-80
2022/06/01 08:30:23;;;;;;;;;;;15.20;99.90;;;;;;5009951;28;19967;-80
2022/06/01 08:32:49;;;;;;;;;;;15.00;99.90;;;;;;5016218;28;20188;-80
2022/06/01 08:35:18;;;;;;;;;;;15.00;99.90;;;;;;5026089;28;20296;-83
2022/06/01 08:37:45;;;;;;;;;;;15.00;99.90;;;;;;4998377;28;20298;-81
2022/06/01 08:40:11;;;;;;;;;;;14.90;99.90;;;;;;5048089;28;19921;-80
2022/06/01 08:42:38;;;;;;;;;;;15.00;99.90;;;;;;4998267;28;19917;-80
2022/06/01 08:45:06;;;;;;;;;;;15.00;99.90;;;;;;5021384;28;20286;-81
2022/06/01 08:47:34;;;;;;;;;;;15.10;99.90;;;;;;5017530;28;20440;-79
2022/06/01 08:50:01;;;;;;;;;;;15.00;99.90;;;;;;5016546;28;19927;-80
2022/06/01 08:52:28;;;;;;;;;;;15.00;99.90;;;;;;5011053;28;19970;-82
2022/06/01 08:54:54;;;;;;;;;;;15.20;99.90;;;;;;5056601;28;19922;-81
2022/06/01 08:57:25;;;;;;;;;;;15.40;99.90;;;;;;5034240;28;19917;-81
2022/06/01 09:00:02;;;;;;;;;;;15.40;99.90;;;;;;5033830;28;19920;-79
2022/06/01 09:02:46;;;;;;;;;;;15.40;99.90;;;;;;5034288;28;19920;-81
2022/06/01 09:05:15;;;;;;;;;;;15.50;99.90;;;;;;5005227;28;20427;-78
2022/06/01 09:07:44;;;;;;;;;;;15.50;99.90;;;;;;5034341;28;20293;-79
2022/06/01 09:10:16;;;;;;;;;;;15.40;99.90;;;;;;5067661;28;19960;-82
2022/06/01 09:12:43;;;;;;;;;;;15.50;99.90;;;;;;5008210;28;20309;-77
2022/06/01 09:15:21;;;;;;;;;;;15.60;99.90;;;;;;5015217;28;19917;-77
2022/06/01 09:17:47;;;;;;;;;;;15.70;99.90;;;;;;5013150;28;20382;-81
2022/06/01 09:23:06;;;;;;;;;;;15.50;99.90;;;;;;5054980;28;19947;-78
2022/06/01 09:25:35;;;;;;;;;;;15.40;99.90;;;;;;5026766;28;19923;-80
2022/06/01 09:28:15;;;;;;;;;;;15.40;99.90;;;;;;5034020;28;20032;-81
2022/06/01 09:30:44;;;;;;;;;;;15.50;99.90;;;;;;5068285;28;19996;-79
2022/06/01 09:33:22;;;;;;;;;;;15.40;99.90;;;;;;5017660;28;19971;-82
2022/06/01 09:36:03;;;;;;;;;;;15.50;99.90;;;;;;5035317;28;20435;-78
2022/06/01 09:38:49;;;;;;;;;;;15.70;99.90;;;;;;5025590;28;19932;-80
2022/06/01 09:41:24;;;;;;;;;;;15.90;99.90;;;;;;5019314;28;19917;-80
2022/06/01 09:44:07;;;;;;;;;;;16.10;99.90;;;;;;5033628;28;19917;-79
2022/06/01 09:46:35;;;;;;;;;;;16.00;99.90;;;;;;5025976;28;20305;-79
2022/06/01 09:49:21;;;;;;;;;;;15.80;99.90;;;;;;5022520;28;20420;-81
2022/06/01 09:51:48;;;;;;;;;;;15.40;99.90;;;;;;5006635;28;20003;-78
2022/06/01 09:54:24;;;;;;;;;;;15.40;99.90;;;;;;5034254;28;19927;-79
2022/06/01 09:56:50;;;;;;;;;;;15.30;99.90;;;;;;5035419;28;19947;-79
2022/06/01 10:08:24;;;;;;;;;;;15.00;99.90;;;;;;5034105;28;20357;-81
2022/06/01 10:10:56;;;;;;;;;;;15.10;99.90;;;;;;4987287;28;19921;-78
2022/06/01 10:13:31;;;;;;;;;;;15.20;99.90;;;;;;5050804;28;19920;-78
2022/06/01 10:15:59;;;;;;;;;;;15.30;99.90;;;;;;5050852;28;19917;-79
2022/06/01 10:18:28;;;;;;;;;;;15.40;99.90;;;;;;5053272;28;20046;-79
2022/06/01 10:20:57;;;;;;;;;;;15.70;99.90;;;;;;5026657;28;19967;-80
2022/06/01 10:23:36;;;;;;;;;;;15.90;99.90;;;;;;5047180;28;19960;-78
2022/06/01 10:26:08;;;;;;;;;;;15.90;99.90;;;;;;5024222;28;19921;-77
2022/06/01 10:28:39;;;;;;;;;;;16.00;99.90;;;;;;5012102;28;19972;-83
2022/06/01 10:31:07;;;;;;;;;;;16.10;99.90;;;;;;5036166;28;19960;-76
2022/06/01 10:33:39;;;;;;;;;;;16.30;99.90;;;;;;5025469;28;19921;-80
2022/06/01 10:36:07;;;;;;;;;;;16.40;99.90;;;;;;5020304;28;19923;-80
2022/06/01 10:38:35;;;;;;;;;;;16.50;99.90;;;;;;5037421;28;20416;-77
2022/06/01 10:41:03;;;;;;;;;;;16.60;99.90;;;;;;5036609;28;20373;-78
2022/06/01 10:43:48;;;;;;;;;;;17.10;99.90;;;;;;5070087;28;19942;-79
2022/06/01 10:46:21;;;;;;;;;;;17.40;99.90;;;;;;5047194;28;19921;-78
2022/06/01 10:49:07;;;;;;;;;;;17.90;99.90;;;;;;5017094;28;19921;-80
2022/06/01 10:51:34;;;;;;;;;;;18.10;99.90;;;;;;5005125;28;19928;-77
2022/06/01 10:54:13;;;;;;;;;;;18.10;99.90;;;;;;5034384;28;19970;-81
2022/06/01 10:56:39;;;;;;;;;;;17.90;99.90;;;;;;5036799;28;19955;-77
2022/06/01 10:59:07;;;;;;;;;;;17.60;99.90;;;;;;5019925;28;19971;-78
2022/06/01 11:01:51;;;;;;;;;;;17.40;99.90;;;;;;5036826;28;19927;-79
2022/06/01 11:04:29;;;;;;;;;;;17.30;99.90;;;;;;5029678;28;19924;-81
2022/06/01 11:07:07;;;;;;;;;;;17.30;99.90;;;;;;5045909;28;19917;-78
2022/06/01 11:09:44;;;;;;;;;;;17.20;99.90;;;;;;5036494;28;20015;-79
2022/06/01 11:12:16;;;;;;;;;;;17.00;99.90;;;;;;5036033;28;20039;-78
2022/06/01 11:14:59;;;;;;;;;;;16.80;99.90;;;;;;5036510;28;20367;-80
2022/06/01 11:17:48;;;;;;;;;;;16.60;99.90;;;;;;5037731;28;20004;-79
2022/06/01 11:20:17;;;;;;;;;;;16.40;99.90;;;;;;5045632;28;19924;-78
2022/06/01 11:22:49;;;;;;;;;;;16.20;99.90;;;;;;5036640;28;19920;-80
2022/06/01 11:25:18;;;;;;;;;;;16.10;99.90;;;;;;5056434;28;19917;-81
2022/06/01 11:27:58;;;;;;;;;;;15.90;99.90;;;;;;5013446;28;20316;-81
2022/06/01 11:30:26;;;;;;;;;;;15.90;99.90;;;;;;5053079;28;19916;-80
2022/06/01 11:32:52;;;;;;;;;;;15.90;99.90;;;;;;5035515;28;19977;-78
2022/06/01 11:35:36;;;;;;;;;;;16.00;99.90;;;;;;5036215;28;20003;-77
2022/06/01 11:38:12;;;;;;;;;;;16.10;99.90;;;;;;5030468;28;19964;-80
2022/06/01 11:40:48;;;;;;;;;;;16.30;99.90;;;;;;5049826;28;19960;-76
2022/06/01 11:43:28;;;;;;;;;;;16.40;99.90;;;;;;5035866;28;19916;-78
2022/06/01 11:45:55;;;;;;;;;;;16.60;99.90;;;;;;5051468;28;19928;-78
2022/06/01 11:48:28;;;;;;;;;;;16.70;99.90;;;;;;5048619;28;20358;-83
2022/06/01 11:51:10;;;;;;;;;;;16.70;99.90;;;;;;5039383;28;19948;-79
2022/06/01 11:53:41;;;;;;;;;;;16.90;99.90;;;;;;5036422;28;19923;-76
2022/06/01 11:56:16;;;;;;;;;;;17.00;99.90;;;;;;5033418;28;19924;-79
2022/06/01 11:58:45;;;;;;;;;;;16.90;99.90;;;;;;5015598;28;19932;-78
2022/06/01 12:01:14;;;;;;;;;;;16.80;99.90;;;;;;5023204;28;19956;-77
2022/06/01 12:03:52;;;;;;;;;;;16.60;99.90;;;;;;5053573;28;19921;-78
2022/06/01 12:06:36;;;;;;;;;;;16.60;99.90;;;;;;5025816;28;20301;-79
2022/06/01 12:09:03;;;;;;;;;;;16.70;99.90;;;;;;5034555;28;19916;-77
2022/06/01 12:11:38;;;;;;;;;;;16.90;99.90;;;;;;5031864;28;20021;-81
2022/06/01 12:14:22;;;;;;;;;;;17.20;99.90;;;;;;5004998;28;19933;-77
2022/06/01 12:17:08;;;;;;;;;;;17.30;99.90;;;;;;5025281;28;19921;-80
2022/06/01 12:19:34;;;;;;;;;;;17.30;99.90;;;;;;5027385;28;19928;-78
2022/06/01 12:22:03;;;;;;;;;;;17.40;99.90;;;;;;5052929;28;19916;-78
2022/06/01 12:30:00;;;;;;;;;;;17.10;99.90;;;;;;5048236;28;20034;-78
2022/06/01 12:32:27;;;;;;;;;;;16.90;99.90;;;;;;5048915;28;19917;-77
2022/06/01 12:35:12;;;;;;;;;;;16.70;99.90;;;;;;5048072;28;19917;-80
2022/06/01 12:37:40;;;;;;;;;;;16.60;99.90;;;;;;5050721;28;20422;-77
2022/06/01 12:40:12;;;;;;;;;;;16.40;99.90;;;;;;5067958;28;19924;-76
2022/06/01 12:42:53;;;;;;;;;;;16.20;99.90;;;;;;5034813;28;19971;-80
2022/06/01 12:45:20;;;;;;;;;;;16.20;99.90;;;;;;5030970;28;20031;-77
2022/06/01 12:47:51;;;;;;;;;;;16.20;99.90;;;;;;5035070;28;19928;-78
2022/06/01 12:50:19;;;;;;;;;;;16.60;99.90;;;;;;5017647;28;19924;-79
2022/06/01 12:52:46;;;;;;;;;;;17.10;99.90;;;;;;5031950;28;19959;-81
2022/06/01 12:55:24;;;;;;;;;;;17.40;99.90;;;;;;5023250;28;19936;-78
2022/06/01 12:57:51;;;;;;;;;;;17.50;99.90;;;;;;5018197;28;19917;-80
2022/06/01 13:00:23;;;;;;;;;;;17.60;99.90;;;;;;5005172;28;19924;-80
2022/06/01 13:02:49;;;;;;;;;;;17.40;99.90;;;;;;5047650;28;19916;-75
2022/06/01 13:05:20;;;;;;;;;;;17.10;99.90;;;;;;5043074;28;19917;-77
2022/06/01 13:07:48;;;;;;;;;;;16.50;99.90;;;;;;5018274;28;19959;-77
2022/06/01 13:10:18;;;;;;;;;;;16.00;99.90;;;;;;5017951;28;19917;-80
2022/06/01 13:12:44;;;;;;;;;;;15.60;99.90;;;;;;5026043;28;19962;-80
2022/06/01 13:15:16;;;;;;;;;;;15.20;99.90;;;;;;5001665;28;19968;-80
2022/06/01 13:17:56;;;;;;;;;;;14.90;99.90;;;;;;5014597;28;19924;-78
2022/06/01 13:20:32;;;;;;;;;;;14.70;99.90;;;;;;5004420;28;19967;-77
2022/06/01 13:23:00;;;;;;;;;;;14.50;99.90;;;;;;5034109;28;20003;-80
2022/06/01 13:25:29;;;;;;;;;;;14.30;99.90;;;;;;5022870;28;19979;-81
2022/06/01 13:27:56;;;;;;;;;;;14.30;99.90;;;;;;5050137;28;19936;-77
2022/06/01 13:30:23;;;;;;;;;;;14.10;99.90;;;;;;4995090;28;20437;-77
2022/06/01 13:32:50;;;;;;;;;;;14.00;99.90;;;;;;5056448;28;19928;-78
2022/06/01 13:35:17;;;;;;;;;;;14.00;99.90;;;;;;5007021;28;20366;-78
2022/06/01 13:37:44;;;;;;;;;;;14.00;99.90;;;;;;5051461;28;20320;-77
2022/06/01 13:40:20;;;;;;;;;;;14.20;99.90;;;;;;5067186;28;20014;-80
2022/06/01 13:42:48;;;;;;;;;;;14.20;99.90;;;;;;5034294;28;19956;-80
2022/06/01 13:45:15;;;;;;;;;;;14.40;99.90;;;;;;5041338;28;19921;-81
2022/06/01 13:47:47;;;;;;;;;;;14.50;99.90;;;;;;5048823;28;19921;-78
2022/06/01 13:50:13;;;;;;;;;;;14.60;99.90;;;;;;5015207;28;19987;-79
2022/06/01 13:52:41;;;;;;;;;;;15.00;99.90;;;;;;5030969;28;19920;-80
2022/06/01 13:55:19;;;;;;;;;;;15.30;99.90;;;;;;5042685;28;19978;-77
2022/06/01 13:57:45;;;;;;;;;;;15.50;99.90;;;;;;5018029;28;20016;-79
2022/06/01 14:00:19;;;;;;;;;;;15.80;99.90;;;;;;5033925;28;19921;-78
2022/06/01 14:02:46;;;;;;;;;;;15.90;99.90;;;;;;5033681;28;19999;-80
2022/06/01 14:05:19;;;;;;;;;;;16.10;99.90;;;;;;5033913;28;19924;-80
2022/06/01 14:07:49;;;;;;;;;;;16.20;99.90;;;;;;5048045;28;19967;-78
2022/06/01 14:10:15;;;;;;;;;;;16.30;99.90;;;;;;5032212;28;20424;-76
2022/06/01 14:12:42;;;;;;;;;;;16.30;99.90;;;;;;5024174;28;20003;-80
2022/06/01 14:15:09;;;;;;;;;;;16.50;99.90;;;;;;5022013;28;19924;-75
2022/06/01 14:17:38;;;;;;;;;;;16.60;99.90;;;;;;5034547;28;19920;-77
2022/06/01 14:20:04;;;;;;;;;;;16.60;99.90;;;;;;5034410;28;19959;-78
2022/06/01 14:22:30;;;;;;;;;;;16.40;99.90;;;;;;5017941;28;19917;-77
2022/06/01 14:30:25;;;;;;;;;;;16.30;99.90;;;;;;5020112;28;19927;-80
2022/06/01 14:32:51;;;;;;;;;;;16.70;99.90;;;;;;5033087;28;20004;-80
2022/06/01 14:35:17;;;;;;;;;;;17.10;99.90;;;;;;5051000;28;19921;-81
2022/06/01 14:37:44;;;;;;;;;;;17.30;99.90;;;;;;5001175;28;19927;-80
2022/06/01 14:40:10;;;;;;;;;;;17.40;99.90;;;;;;5023228;28;20028;-77
2022/06/01 14:42:36;;;;;;;;;;;17.90;99.90;;;;;;5048360;28;20357;-78
2022/06/01 14:45:02;;;;;;;;;;;18.30;99.90;;;;;;5032553;28;19968;-79
2022/06/01 14:47:28;;;;;;;;;;;18.50;99.90;;;;;;5035151;28;20544;-76
2022/06/01 14:49:53;;;;;;;;;;;18.70;99.90;;;;;;5043604;28;19928;-79
2022/06/01 14:52:19;;;;;;;;;;;18.60;99.90;;;;;;5050727;28;19962;-78
2022/06/01 14:54:45;;;;;;;;;;;18.40;99.90;;;;;;5017397;28;19921;-77
2022/06/01 14:57:11;;;;;;;;;;;18.10;99.90;;;;;;5017842;28;19924;-79
2022/06/01 14:59:37;;;;;;;;;;;17.70;99.90;;;;;;5036836;28;19924;-79
2022/06/01 15:02:04;;;;;;;;;;;17.30;99.90;;;;;;5037562;28;19947;-78
2022/06/01 15:04:34;;;;;;;;;;;16.90;99.90;;;;;;5027934;28;20019;-79
2022/06/01 15:06:59;;;;;;;;;;;16.40;99.90;;;;;;5032020;28;19923;-79
2022/06/01 15:09:27;;;;;;;;;;;16.10;99.90;;;;;;5036496;28;19921;-78